createdAt,value
2022-08-03T00:00:31.075Z,22.61
2022-08-03T00:02:58.705Z,22.69
2022-08-03T00:05:26.420Z,22.65
2022-08-03T00:07:54.027Z,22.56
2022-08-03T00:10:21.909Z,22.50
2022-08-03T00:12:49.563Z,22.37
2022-08-03T00:15:17.241Z,22.31
2022-08-03T00:17:52.698Z,22.34
2022-08-03T00:20:22.518Z,22.37
2022-08-03T00:22:53.641Z,22.36
2022-08-03T00:25:21.284Z,22.36
2022-08-03T00:27:49.014Z,22.30
2022-08-03T00:30:18.892Z,22.33
2022-08-03T00:32:48.109Z,22.23
2022-08-03T00:35:36.693Z,22.26
2022-08-03T00:38:04.125Z,22.21
2022-08-03T00:40:32.865Z,22.22
2022-08-03T00:43:04.526Z,22.20
2022-08-03T00:45:40.684Z,22.19
2022-08-03T00:48:27.256Z,22.14
2022-08-03T00:50:59.144Z,22.15
2022-08-03T00:53:27.855Z,22.06
2022-08-03T00:55:56.245Z,22.12
2022-08-03T00:58:24.474Z,21.99
2022-08-03T01:00:52.249Z,21.97
2022-08-03T01:03:19.969Z,22.01
2022-08-03T01:06:02.192Z,21.91
2022-08-03T01:08:39.238Z,21.97
2022-08-03T01:11:19.653Z,21.87
2022-08-03T01:14:19.399Z,21.87
2022-08-03T01:17:26.060Z,21.78
2022-08-03T01:20:06.163Z,21.82
2022-08-03T01:23:13.032Z,21.83
2022-08-03T01:26:17.550Z,21.80
2022-08-03T01:29:09.159Z,21.77
2022-08-03T01:32:59.325Z,21.76
2022-08-03T01:34:45.626Z,21.58
2022-08-03T01:37:22.153Z,21.69
2022-08-03T01:39:51.590Z,21.68
2022-08-03T01:42:21.411Z,21.63
2022-08-03T01:44:51.410Z,21.48
2022-08-03T01:47:22.535Z,21.58
2022-08-03T01:49:52.327Z,21.56
2022-08-03T01:52:21.746Z,21.29
2022-08-03T01:54:52.438Z,21.32
2022-08-03T01:57:22.473Z,21.19
2022-08-03T01:59:52.549Z,21.21
2022-08-03T02:02:33.262Z,21.22
2022-08-03T02:05:10.685Z,21.22
2022-08-03T02:07:42.475Z,21.28
2022-08-03T02:10:13.954Z,21.24
2022-08-03T02:12:46.105Z,21.07
2022-08-03T02:15:16.796Z,21.06
2022-08-03T02:17:47.750Z,21.04
2022-08-03T02:20:16.783Z,21.07
2022-08-03T02:22:46.505Z,21.13
2022-08-03T02:25:16.041Z,21.11
2022-08-03T02:27:55.712Z,21.14
2022-08-03T02:30:31.669Z,21.03
2022-08-03T02:33:01.508Z,21.05
2022-08-03T02:35:30.866Z,21.05
2022-08-03T02:38:03.875Z,21.06
2022-08-03T02:40:33.227Z,21.09
2022-08-03T02:43:07.009Z,21.08
2022-08-03T02:45:45.351Z,20.96
2022-08-03T02:48:19.837Z,20.95
2022-08-03T02:50:48.831Z,20.76
2022-08-03T02:53:18.328Z,20.76
2022-08-03T02:55:48.526Z,20.77
2022-08-03T02:58:21.382Z,20.75
2022-08-03T03:00:52.019Z,20.81
2022-08-03T03:03:22.239Z,20.76
2022-08-03T03:05:55.558Z,20.73
2022-08-03T03:08:28.319Z,20.74
2022-08-03T03:11:01.527Z,20.63
2022-08-03T03:13:31.355Z,20.57
2022-08-03T03:16:03.471Z,20.57
2022-08-03T03:18:33.588Z,20.60
2022-08-03T03:21:03.326Z,20.47
2022-08-03T03:23:36.116Z,20.52
2022-08-03T03:26:05.416Z,20.46
2022-08-03T03:28:33.867Z,20.54
2022-08-03T03:31:01.497Z,20.37
2022-08-03T03:33:29.217Z,20.55
2022-08-03T03:35:58.738Z,20.49
2022-08-03T03:38:26.949Z,20.39
2022-08-03T03:40:55.203Z,20.36
2022-08-03T03:43:24.946Z,20.33
2022-08-03T03:45:53.754Z,20.24
2022-08-03T03:48:21.837Z,20.26
2022-08-03T03:50:50.569Z,20.42
2022-08-03T03:53:18.307Z,20.37
2022-08-03T03:56:01.590Z,20.32
2022-08-03T03:58:32.766Z,20.26
2022-08-03T04:01:01.440Z,20.31
2022-08-03T04:03:29.269Z,20.23
2022-08-03T04:06:16.246Z,20.26
2022-08-03T04:09:19.200Z,20.25
2022-08-03T04:11:54.512Z,20.26
2022-08-03T04:14:28.215Z,20.27
2022-08-03T04:17:01.851Z,20.18
2022-08-03T04:19:51.451Z,20.23
2022-08-03T04:22:24.489Z,20.24
2022-08-03T04:24:59.270Z,20.25
2022-08-03T04:27:37.079Z,20.16
2022-08-03T04:30:07.185Z,20.19
2022-08-03T04:32:37.434Z,20.05
2022-08-03T04:35:06.634Z,20.23
2022-08-03T04:37:47.956Z,20.24
2022-08-03T04:40:22.974Z,20.23
2022-08-03T04:42:51.258Z,20.14
2022-08-03T04:45:21.042Z,20.17
2022-08-03T04:47:50.229Z,20.24
2022-08-03T04:50:21.519Z,20.14
2022-08-03T04:53:07.175Z,20.15
2022-08-03T04:55:35.659Z,20.19
2022-08-03T04:58:04.555Z,20.19
2022-08-03T05:00:32.629Z,20.28
2022-08-03T05:03:00.253Z,20.22
2022-08-03T05:05:48.774Z,20.25
2022-08-03T05:08:15.804Z,20.24
2022-08-03T05:10:43.427Z,20.25
2022-08-03T05:13:13.182Z,20.26
2022-08-03T05:15:43.054Z,20.30
2022-08-03T05:18:14.085Z,20.37
2022-08-03T05:20:42.070Z,20.33
2022-08-03T05:23:09.713Z,20.44
2022-08-03T05:25:37.350Z,20.34
2022-08-03T05:28:07.084Z,20.36
2022-08-03T05:30:34.818Z,20.36
2022-08-03T05:33:04.007Z,20.36
2022-08-03T05:36:02.485Z,20.42
2022-08-03T05:38:24.092Z,20.49
2022-08-03T05:41:21.269Z,20.40
2022-08-03T05:43:46.364Z,20.62
2022-08-03T05:46:14.106Z,20.68
2022-08-03T05:48:42.689Z,20.59
2022-08-03T05:51:13.790Z,20.64
2022-08-03T05:53:43.023Z,20.75
2022-08-03T05:56:14.428Z,20.70
2022-08-03T05:58:45.430Z,20.72
2022-08-03T06:01:13.268Z,20.79
2022-08-03T06:03:41.171Z,20.87
2022-08-03T06:06:08.817Z,21.01
2022-08-03T06:08:36.576Z,20.96
2022-08-03T06:11:04.853Z,21.11
2022-08-03T06:13:32.800Z,21.17
2022-08-03T06:16:00.636Z,21.14
2022-08-03T06:18:28.412Z,21.21
2022-08-03T06:20:56.266Z,21.38
2022-08-03T06:23:52.554Z,21.41
2022-08-03T06:26:13.553Z,21.43
2022-08-03T06:28:52.869Z,21.56
2022-08-03T06:31:24.195Z,21.57
2022-08-03T06:34:32.657Z,21.64
2022-08-03T06:36:40.035Z,21.72
2022-08-03T06:39:08.251Z,21.78
2022-08-03T06:41:37.512Z,21.81
2022-08-03T06:44:10.394Z,22.02
2022-08-03T06:46:38.151Z,22.12
2022-08-03T06:49:07.203Z,22.08
2022-08-03T06:52:03.997Z,22.14
2022-08-03T06:54:24.581Z,22.35
2022-08-03T06:56:52.446Z,22.34
2022-08-03T07:00:07.393Z,22.46
2022-08-03T07:02:07.870Z,22.60
2022-08-03T07:04:35.560Z,22.69
2022-08-03T07:07:03.252Z,22.91
2022-08-03T07:09:30.899Z,22.92
2022-08-03T07:11:59.385Z,22.95
2022-08-03T07:14:27.120Z,23.15
2022-08-03T07:16:56.516Z,23.08
2022-08-03T07:19:24.096Z,23.30
2022-08-03T07:21:51.679Z,23.39
2022-08-03T07:24:21.330Z,23.54
2022-08-03T07:26:48.958Z,23.62
2022-08-03T07:29:16.647Z,23.70
2022-08-03T07:31:44.323Z,23.80
2022-08-03T07:34:12.086Z,23.94
2022-08-03T07:36:39.781Z,23.88
2022-08-03T07:39:15.838Z,23.97
2022-08-03T07:41:49.966Z,24.12
2022-08-03T07:44:21.385Z,24.24
2022-08-03T07:46:50.678Z,24.26
2022-08-03T07:49:19.777Z,24.41
2022-08-03T07:52:07.403Z,24.51
2022-08-03T07:54:35.197Z,24.62
2022-08-03T07:57:02.927Z,24.62
2022-08-03T07:59:30.496Z,24.47
2022-08-03T08:02:18.579Z,24.63
2022-08-03T08:04:46.368Z,24.84
2022-08-03T08:07:14.031Z,24.89
2022-08-03T08:09:45.942Z,25.12
2022-08-03T08:12:15.488Z,25.07
2022-08-03T08:14:46.618Z,25.32
2022-08-03T08:17:14.569Z,25.32
2022-08-03T08:19:51.408Z,25.44
2022-08-03T08:22:29.754Z,25.52
2022-08-03T08:24:59.524Z,25.65
2022-08-03T08:28:30.841Z,25.67
2022-08-03T08:30:22.299Z,25.72
2022-08-03T08:32:51.167Z,25.73
2022-08-03T08:35:19.424Z,25.83
2022-08-03T08:37:50.826Z,26.10
2022-08-03T08:40:22.458Z,26.05
2022-08-03T08:42:58.547Z,26.25
2022-08-03T08:45:28.081Z,26.41
2022-08-03T08:48:01.686Z,26.54
2022-08-03T08:50:32.028Z,26.44
2022-08-03T08:53:03.737Z,26.52
2022-08-03T08:55:59.399Z,26.64
2022-08-03T08:58:23.340Z,26.86
2022-08-03T09:00:51.391Z,26.90
2022-08-03T09:03:23.096Z,27.00
2022-08-03T09:06:00.865Z,27.17
2022-08-03T09:08:33.053Z,27.33
2022-08-03T09:11:00.798Z,27.56
2022-08-03T09:13:29.337Z,27.51
2022-08-03T09:16:21.477Z,27.61
2022-08-03T09:18:54.399Z,27.59
2022-08-03T09:21:32.843Z,27.86
2022-08-03T09:24:05.706Z,27.93
2022-08-03T09:26:36.882Z,28.09
2022-08-03T09:29:14.868Z,28.12
2022-08-03T09:31:47.300Z,28.18
2022-08-03T09:34:17.442Z,28.28
2022-08-03T09:36:49.904Z,28.29
2022-08-03T09:39:19.704Z,28.25
2022-08-03T09:42:18.318Z,28.52
2022-08-03T09:44:51.475Z,28.68
2022-08-03T09:47:44.892Z,28.78
2022-08-03T09:50:12.983Z,28.78
2022-08-03T09:52:50.019Z,28.95
2022-08-03T09:56:30.682Z,29.02
2022-08-03T09:58:11.615Z,28.98
2022-08-03T10:01:05.789Z,29.19
2022-08-03T10:04:03.372Z,29.22
2022-08-03T10:06:29.038Z,29.28
2022-08-03T10:09:15.004Z,29.40
2022-08-03T10:11:43.516Z,29.47
2022-08-03T10:14:19.514Z,29.67
2022-08-03T10:16:49.219Z,29.71
2022-08-03T10:19:17.886Z,29.84
2022-08-03T10:21:57.046Z,29.98
2022-08-03T10:24:28.655Z,29.82
2022-08-03T10:27:07.245Z,29.83
2022-08-03T10:29:43.559Z,29.97
2022-08-03T10:32:22.169Z,29.93
2022-08-03T10:34:59.948Z,30.00
2022-08-03T10:37:33.172Z,30.29
2022-08-03T10:40:02.345Z,30.39
2022-08-03T10:42:31.951Z,30.56
2022-08-03T10:45:10.684Z,30.76
2022-08-03T10:47:40.266Z,30.87
2022-08-03T10:50:09.642Z,30.92
2022-08-03T10:52:58.097Z,31.07
2022-08-03T10:55:53.846Z,31.28
2022-08-03T10:58:57.139Z,31.45
2022-08-03T11:02:00.061Z,31.59
2022-08-03T11:04:30.355Z,31.60
2022-08-03T11:07:17.688Z,31.79
2022-08-03T11:09:48.626Z,31.80
2022-08-03T11:12:32.434Z,31.89
2022-08-03T11:15:08.957Z,31.97
2022-08-03T11:17:46.943Z,32.00
2022-08-03T11:21:08.667Z,32.16
2022-08-03T11:24:02.971Z,31.83
2022-08-03T11:26:34.557Z,31.85
2022-08-03T11:29:31.959Z,32.03
2022-08-03T11:31:59.682Z,32.21
2022-08-03T11:34:27.374Z,32.26
2022-08-03T11:37:20.860Z,32.40
2022-08-03T11:39:51.337Z,32.46
2022-08-03T11:42:25.588Z,32.43
2022-08-03T11:44:56.331Z,32.50
2022-08-03T11:47:29.640Z,32.72
2022-08-03T11:50:02.074Z,32.83
2022-08-03T11:52:39.856Z,32.81
2022-08-03T11:55:13.238Z,32.93
2022-08-03T11:59:01.219Z,32.97
2022-08-03T12:00:33.542Z,32.93
2022-08-03T12:03:11.994Z,32.81
2022-08-03T12:05:57.527Z,32.63
2022-08-03T12:08:28.437Z,32.93
2022-08-03T12:11:00.020Z,32.94
2022-08-03T12:14:45.531Z,33.12
2022-08-03T12:16:28.775Z,33.25
2022-08-03T12:18:57.334Z,33.40
2022-08-03T12:21:25.248Z,33.36
2022-08-03T12:24:01.273Z,33.58
2022-08-03T12:26:32.361Z,33.53
2022-08-03T12:28:59.973Z,33.66
2022-08-03T12:31:27.696Z,33.69
2022-08-03T12:34:07.969Z,33.72
2022-08-03T12:36:36.711Z,33.62
2022-08-03T12:39:11.776Z,33.66
2022-08-03T12:41:40.969Z,33.53
2022-08-03T12:44:09.977Z,33.47
2022-08-03T12:46:45.435Z,33.49
2022-08-03T12:49:18.779Z,33.75
2022-08-03T12:51:46.498Z,33.78
2022-08-03T12:54:24.558Z,33.75
2022-08-03T12:57:08.308Z,33.73
2022-08-03T12:59:52.871Z,33.74
2022-08-03T13:02:24.709Z,33.63
2022-08-03T13:04:54.661Z,33.22
2022-08-03T13:07:23.383Z,33.04
2022-08-03T13:09:54.483Z,32.88
2022-08-03T13:12:25.213Z,32.79
2022-08-03T13:14:58.883Z,32.98
2022-08-03T13:17:27.696Z,32.86
2022-08-03T13:19:56.411Z,32.83
2022-08-03T13:22:28.917Z,32.72
2022-08-03T13:24:57.873Z,32.84
2022-08-03T13:28:03.189Z,32.83
2022-08-03T13:30:17.857Z,32.99
2022-08-03T13:32:58.789Z,33.04
2022-08-03T13:35:26.620Z,33.30
2022-08-03T13:37:54.339Z,33.44
2022-08-03T13:40:23.619Z,33.51
2022-08-03T13:42:58.137Z,33.63
2022-08-03T13:45:27.470Z,33.76
2022-08-03T13:47:55.164Z,33.78
2022-08-03T13:50:22.819Z,33.78
2022-08-03T13:52:50.471Z,33.73
2022-08-03T13:55:18.171Z,33.82
2022-08-03T13:58:03.130Z,34.01
2022-08-03T14:00:34.123Z,33.93
2022-08-03T14:03:13.207Z,33.98
2022-08-03T14:05:42.785Z,34.06
2022-08-03T14:08:11.352Z,34.11
2022-08-03T14:10:42.425Z,34.00
2022-08-03T14:13:16.707Z,33.93
2022-08-03T14:15:50.309Z,33.83
2022-08-03T14:18:28.458Z,33.68
2022-08-03T14:21:07.242Z,33.53
2022-08-03T14:23:37.919Z,33.45
2022-08-03T14:26:07.199Z,33.53
2022-08-03T14:28:35.678Z,33.44
2022-08-03T14:31:04.142Z,33.62
2022-08-03T14:33:36.415Z,33.89
2022-08-03T14:36:04.929Z,33.72
2022-08-03T14:38:32.694Z,33.48
2022-08-03T14:41:00.328Z,33.59
2022-08-03T14:43:33.844Z,33.65
2022-08-03T14:46:01.894Z,33.82
2022-08-03T14:49:02.650Z,34.00
2022-08-03T14:51:17.366Z,34.03
2022-08-03T14:53:46.284Z,33.97
2022-08-03T14:56:13.902Z,33.81
2022-08-03T14:58:41.562Z,33.67
2022-08-03T15:02:04.674Z,33.55
2022-08-03T15:03:56.844Z,33.40
2022-08-03T15:06:24.512Z,33.44
2022-08-03T15:09:23.032Z,33.41
2022-08-03T15:11:40.254Z,33.49
2022-08-03T15:14:09.579Z,33.55
2022-08-03T15:16:38.556Z,33.62
2022-08-03T15:20:03.459Z,33.63
2022-08-03T15:21:54.126Z,33.65
2022-08-03T15:24:22.041Z,33.59
2022-08-03T15:26:51.870Z,33.42
2022-08-03T15:30:05.395Z,33.41
2022-08-03T15:32:09.544Z,33.45
2022-08-03T15:34:37.542Z,33.53
2022-08-03T15:37:15.183Z,33.54
2022-08-03T15:39:58.941Z,33.61
2022-08-03T15:42:29.888Z,33.66
2022-08-03T15:44:57.774Z,33.15
2022-08-03T15:47:26.581Z,32.88
2022-08-03T15:49:54.197Z,32.67
2022-08-03T15:52:21.881Z,32.75
2022-08-03T15:54:49.626Z,32.53
2022-08-03T15:57:17.275Z,32.39
2022-08-03T15:59:44.893Z,32.33
2022-08-03T16:02:12.630Z,32.12
2022-08-03T16:04:40.230Z,32.09
2022-08-03T16:07:08.757Z,32.06
2022-08-03T16:09:42.773Z,31.63
2022-08-03T16:12:16.445Z,31.63
2022-08-03T16:14:52.780Z,31.68
2022-08-03T16:17:22.521Z,31.69
2022-08-03T16:19:52.217Z,31.65
2022-08-03T16:22:24.420Z,31.73
2022-08-03T16:24:55.300Z,31.71
2022-08-03T16:27:37.138Z,31.48
2022-08-03T16:30:16.774Z,31.33
2022-08-03T16:32:45.499Z,31.20
2022-08-03T16:35:19.240Z,31.21
2022-08-03T16:37:56.141Z,31.09
2022-08-03T16:40:27.781Z,31.07
2022-08-03T16:42:55.562Z,30.85
2022-08-03T16:45:23.468Z,31.04
2022-08-03T16:48:01.658Z,31.09
2022-08-03T16:50:34.872Z,30.68
2022-08-03T16:53:10.041Z,30.90
2022-08-03T16:55:52.137Z,30.83
2022-08-03T16:58:34.903Z,30.90
2022-08-03T17:01:21.913Z,31.02
2022-08-03T17:04:03.258Z,30.89
2022-08-03T17:06:37.151Z,30.97
2022-08-03T17:09:18.982Z,30.87
2022-08-03T17:11:50.553Z,30.72
2022-08-03T17:14:29.438Z,30.66
2022-08-03T17:17:01.779Z,30.72
2022-08-03T17:19:33.824Z,30.56
2022-08-03T17:22:12.201Z,30.39
2022-08-03T17:24:46.783Z,30.41
2022-08-03T17:28:51.519Z,30.33
2022-08-03T17:30:12.020Z,30.31
2022-08-03T17:32:52.741Z,30.19
2022-08-03T17:35:35.526Z,30.47
2022-08-03T17:38:10.289Z,30.41
2022-08-03T17:40:48.118Z,30.53
2022-08-03T17:44:14.442Z,30.54
2022-08-03T17:46:07.077Z,30.44
2022-08-03T17:48:41.493Z,30.59
2022-08-03T17:52:03.837Z,30.37
2022-08-03T17:55:55.495Z,30.44
2022-08-03T17:58:08.319Z,30.37
2022-08-03T18:00:59.509Z,30.35
2022-08-03T18:03:58.499Z,30.14
2022-08-03T18:06:36.019Z,30.16
2022-08-03T18:10:04.619Z,30.15
2022-08-03T18:11:59.034Z,30.09
2022-08-03T18:14:57.563Z,30.00
2022-08-03T18:17:55.552Z,29.89
2022-08-03T18:20:31.259Z,29.74
2022-08-03T18:23:24.755Z,29.64
2022-08-03T18:29:01.003Z,29.69
2022-08-03T18:31:59.719Z,29.54
2022-08-03T18:34:32.600Z,29.52
2022-08-03T18:37:07.445Z,29.46
2022-08-03T18:42:27.312Z,29.21
2022-08-03T18:44:56.907Z,29.27
2022-08-03T18:47:50.841Z,29.39
2022-08-03T18:50:49.680Z,29.25
2022-08-03T18:54:08.154Z,28.98
2022-08-03T18:56:56.151Z,28.96
2022-08-03T18:59:31.064Z,28.79
2022-08-03T19:02:06.343Z,28.75
2022-08-03T19:04:58.276Z,28.80
2022-08-03T19:07:27.696Z,28.74
2022-08-03T19:10:15.844Z,28.59
2022-08-03T19:12:54.266Z,28.29
2022-08-03T19:15:36.802Z,28.19
2022-08-03T19:18:11.897Z,28.13
2022-08-03T19:20:46.736Z,28.12
2022-08-03T19:23:16.327Z,27.95
2022-08-03T19:25:44.793Z,28.03
2022-08-03T19:28:12.457Z,27.86
2022-08-03T19:30:40.670Z,27.92
2022-08-03T19:33:15.740Z,27.88
2022-08-03T19:35:55.104Z,27.65
2022-08-03T19:38:27.606Z,27.49
2022-08-03T19:41:04.077Z,27.40
2022-08-03T19:43:53.358Z,27.46
2022-08-03T19:46:27.657Z,27.39
2022-08-03T19:49:14.953Z,27.22
2022-08-03T19:52:01.162Z,27.09
2022-08-03T19:54:54.210Z,27.18
2022-08-03T19:57:25.286Z,27.04
2022-08-03T19:59:57.333Z,27.19
2022-08-03T20:02:25.577Z,27.03
2022-08-03T20:04:57.806Z,26.96
2022-08-03T20:07:32.256Z,26.90
2022-08-03T20:10:02.851Z,26.73
2022-08-03T20:12:38.717Z,26.70
2022-08-03T20:15:09.156Z,26.47
2022-08-03T20:20:33.228Z,26.51
2022-08-03T20:23:07.429Z,26.44
2022-08-03T20:25:48.716Z,26.28
2022-08-03T20:28:50.233Z,26.31
2022-08-03T20:31:32.586Z,26.22
2022-08-03T20:34:05.767Z,26.34
2022-08-03T20:36:33.405Z,26.39
2022-08-03T20:39:02.089Z,26.22
2022-08-03T20:41:35.628Z,26.17
2022-08-03T20:44:04.541Z,26.20
2022-08-03T20:46:41.744Z,26.08
2022-08-03T20:49:22.919Z,25.98
2022-08-03T20:51:53.254Z,25.84
2022-08-03T20:54:29.271Z,25.74
2022-08-03T20:57:03.573Z,25.83
2022-08-03T20:59:50.770Z,25.71
2022-08-03T21:02:30.307Z,25.64
2022-08-03T21:05:03.505Z,25.59
2022-08-03T21:08:05.025Z,25.36
2022-08-03T21:10:38.813Z,25.48
2022-08-03T21:13:03.794Z,26.56
2022-08-03T21:13:03.971Z,29.67
2022-08-03T21:13:05.550Z,29.50
2022-08-03T21:13:24.753Z,25.56
2022-08-03T21:16:12.178Z,25.53
2022-08-03T21:18:50.875Z,25.37
2022-08-03T21:21:23.239Z,25.19
2022-08-03T21:23:53.837Z,25.08
2022-08-03T21:26:25.710Z,25.00
2022-08-03T21:28:56.518Z,24.86
2022-08-03T21:31:26.518Z,24.85
2022-08-03T21:33:58.386Z,24.94
2022-08-03T21:36:29.193Z,24.94
2022-08-03T21:38:59.106Z,24.93
2022-08-03T21:41:31.441Z,25.00
2022-08-03T21:44:00.393Z,24.92
2022-08-03T21:46:37.719Z,24.90
2022-08-03T21:50:07.203Z,24.92
2022-08-03T21:52:07.309Z,24.66
2022-08-03T21:54:42.486Z,24.61
2022-08-03T21:57:23.987Z,24.62
2022-08-03T21:59:57.637Z,24.74
2022-08-03T22:02:32.024Z,24.75
2022-08-03T22:05:00.158Z,24.65
2022-08-03T22:07:32.021Z,24.51
2022-08-03T22:10:02.167Z,24.51
2022-08-03T22:12:31.970Z,24.59
2022-08-03T22:15:02.214Z,24.64
2022-08-03T22:17:55.959Z,24.36
2022-08-03T22:20:21.831Z,24.25
2022-08-03T22:22:55.687Z,24.25
2022-08-03T22:25:36.538Z,24.29
2022-08-03T22:28:12.845Z,24.27
2022-08-03T22:30:42.330Z,24.09
2022-08-03T22:33:12.153Z,24.04
2022-08-03T22:35:51.572Z,24.11
2022-08-03T22:38:19.892Z,24.00
2022-08-03T22:40:50.842Z,23.96
2022-08-03T22:43:27.274Z,23.73
2022-08-03T22:46:11.253Z,23.61
2022-08-03T22:48:40.941Z,23.59
2022-08-03T22:51:10.102Z,23.61
2022-08-03T22:53:40.164Z,23.66
2022-08-03T22:56:09.046Z,23.65
2022-08-03T22:58:36.793Z,23.61
2022-08-03T23:01:08.662Z,23.53
2022-08-03T23:04:00.055Z,23.64
2022-08-03T23:06:39.078Z,23.43
2022-08-03T23:09:13.433Z,23.49
2022-08-03T23:11:45.882Z,23.35
2022-08-03T23:14:17.145Z,23.28
2022-08-03T23:16:47.023Z,23.24
2022-08-03T23:19:25.299Z,23.21
2022-08-03T23:22:02.371Z,23.23
2022-08-03T23:24:36.146Z,23.25
2022-08-03T23:27:06.966Z,23.28
2022-08-03T23:29:37.133Z,23.16
2022-08-03T23:32:06.303Z,23.21
2022-08-03T23:34:52.934Z,23.12
2022-08-03T23:37:20.937Z,23.14
2022-08-03T23:39:49.366Z,22.97
2022-08-03T23:42:19.625Z,22.92
2022-08-03T23:44:56.688Z,23.03
2022-08-03T23:47:46.743Z,23.06
2022-08-03T23:50:15.322Z,23.04
2022-08-03T23:53:01.977Z,23.02
2022-08-03T23:55:54.390Z,23.13
2022-08-03T23:58:28.328Z,23.05
